createdAt,value
2022-10-05T00:01:22.063Z,101490.13
2022-10-05T00:03:49.251Z,101480.91
2022-10-05T00:06:17.476Z,101474.44
2022-10-05T00:08:44.420Z,101462.25
2022-10-05T00:11:13.587Z,101462.94
2022-10-05T00:13:40.827Z,101465.34
2022-10-05T00:16:15.585Z,101465.13
2022-10-05T00:18:45.178Z,101461.38
2022-10-05T00:21:20.906Z,101455.78
2022-10-05T00:23:48.363Z,101457.13
2022-10-05T00:26:19.982Z,101449.53
2022-10-05T00:28:47.230Z,101450.59
2022-10-05T00:31:18.183Z,101450.66
2022-10-05T00:33:45.196Z,101443.59
2022-10-05T00:36:12.690Z,101437.72
2022-10-05T00:38:42.340Z,101441.38
2022-10-05T00:41:14.578Z,101444.94
2022-10-05T00:44:07.945Z,101436.00
2022-10-05T00:46:45.125Z,101430.66
2022-10-05T00:49:25.676Z,101434.09
2022-10-05T00:52:03.057Z,101436.75
2022-10-05T00:54:37.312Z,101425.16
2022-10-05T00:57:24.011Z,101429.03
2022-10-05T01:00:03.012Z,101433.53
2022-10-05T01:02:41.978Z,101430.75
2022-10-05T01:05:12.957Z,101429.91
2022-10-05T01:07:50.280Z,101432.44
2022-10-05T01:10:30.723Z,101424.13
2022-10-05T01:13:06.500Z,101434.25
2022-10-05T01:15:41.320Z,101423.06
2022-10-05T01:18:17.727Z,101409.78
2022-10-05T01:20:58.177Z,101418.75
2022-10-05T01:24:03.989Z,101412.53
2022-10-05T01:27:06.866Z,101407.38
2022-10-05T01:29:41.638Z,101401.97
2022-10-05T01:32:16.537Z,101403.81
2022-10-05T01:34:49.606Z,101395.34
2022-10-05T01:37:24.766Z,101395.16
2022-10-05T01:40:02.775Z,101388.22
2022-10-05T01:42:46.338Z,101382.63
2022-10-05T01:45:24.903Z,101379.44
2022-10-05T01:47:58.115Z,101378.94
2022-10-05T01:50:33.202Z,101359.09
2022-10-05T01:53:09.280Z,101352.00
2022-10-05T01:55:43.338Z,101356.84
2022-10-05T01:58:20.078Z,101354.13
2022-10-05T02:01:00.504Z,101352.63
2022-10-05T02:03:33.520Z,101351.31
2022-10-05T02:06:08.578Z,101346.16
2022-10-05T02:08:41.064Z,101336.56
2022-10-05T02:11:10.133Z,101339.44
2022-10-05T02:13:41.381Z,101341.88
2022-10-05T02:16:14.800Z,101329.34
2022-10-05T02:18:49.542Z,101336.00
2022-10-05T02:21:17.417Z,101327.69
2022-10-05T02:23:47.276Z,101329.00
2022-10-05T02:26:16.410Z,101324.72
2022-10-05T02:28:48.356Z,101322.44
2022-10-05T02:31:22.262Z,101321.75
2022-10-05T02:33:49.132Z,101317.16
2022-10-05T02:36:19.245Z,101321.25
2022-10-05T02:39:00.011Z,101315.69
2022-10-05T02:41:42.702Z,101319.88
2022-10-05T02:44:20.537Z,101317.47
2022-10-05T02:46:57.389Z,101312.06
2022-10-05T02:49:33.302Z,101312.75
2022-10-05T02:52:08.656Z,101306.84
2022-10-05T02:54:47.427Z,101309.13
2022-10-05T02:57:21.849Z,101305.34
2022-10-05T02:59:56.169Z,101298.53
2022-10-05T03:02:29.617Z,101299.28
2022-10-05T03:05:10.894Z,101297.31
2022-10-05T03:07:47.142Z,101293.75
2022-10-05T03:10:26.048Z,101285.88
2022-10-05T03:13:00.905Z,101290.16
2022-10-05T03:16:00.038Z,101280.53
2022-10-05T03:18:40.099Z,101283.66
2022-10-05T03:21:21.512Z,101280.63
2022-10-05T03:24:02.890Z,101278.06
2022-10-05T03:26:40.972Z,101278.69
2022-10-05T03:29:20.907Z,101281.19
2022-10-05T03:31:56.637Z,101272.88
2022-10-05T03:34:33.333Z,101277.00
2022-10-05T03:37:05.150Z,101269.19
2022-10-05T03:39:37.389Z,101279.94
2022-10-05T03:42:16.092Z,101263.50
2022-10-05T03:44:53.916Z,101263.94
2022-10-05T03:47:29.157Z,101262.13
2022-10-05T03:50:21.875Z,101264.94
2022-10-05T03:52:54.858Z,101262.31
2022-10-05T03:55:29.788Z,101259.03
2022-10-05T03:58:02.252Z,101255.25
2022-10-05T04:00:32.084Z,101254.09
2022-10-05T04:03:05.203Z,101256.31
2022-10-05T04:05:38.212Z,101251.19
2022-10-05T04:08:10.200Z,101250.31
2022-10-05T04:10:42.244Z,101251.31
2022-10-05T04:13:16.558Z,101239.06
2022-10-05T04:15:49.400Z,101243.91
2022-10-05T04:18:26.323Z,101239.19
2022-10-05T04:20:58.939Z,101238.03
2022-10-05T04:23:38.678Z,101230.84
2022-10-05T04:26:10.583Z,101229.38
2022-10-05T04:28:44.628Z,101218.09
2022-10-05T04:31:16.260Z,101233.53
2022-10-05T04:33:47.552Z,101229.03
2022-10-05T04:36:24.463Z,101219.25
2022-10-05T04:39:03.707Z,101221.97
2022-10-05T04:41:53.399Z,101219.03
2022-10-05T04:44:40.549Z,101213.66
2022-10-05T04:47:28.254Z,101209.97
2022-10-05T04:50:13.193Z,101216.47
2022-10-05T04:52:55.367Z,101208.13
2022-10-05T04:55:30.450Z,101214.13
2022-10-05T04:58:07.774Z,101209.69
2022-10-05T05:00:48.187Z,101204.41
2022-10-05T05:03:38.591Z,101198.78
2022-10-05T05:06:18.211Z,101196.25
2022-10-05T05:09:26.620Z,101192.66
2022-10-05T05:12:08.060Z,101199.06
2022-10-05T05:14:55.460Z,101198.03
2022-10-05T05:17:36.411Z,101199.16
2022-10-05T05:20:19.408Z,101201.63
2022-10-05T05:22:52.412Z,101196.69
2022-10-05T05:25:34.838Z,101193.28
2022-10-05T05:28:12.471Z,101198.41
2022-10-05T05:30:45.102Z,101200.81
2022-10-05T05:33:21.584Z,101188.16
2022-10-05T05:36:09.161Z,101199.06
2022-10-05T05:38:41.621Z,101192.50
2022-10-05T05:41:13.243Z,101191.16
2022-10-05T05:43:53.555Z,101186.19
2022-10-05T05:46:44.709Z,101188.63
2022-10-05T05:49:18.367Z,101182.84
2022-10-05T05:51:51.871Z,101193.28
2022-10-05T05:54:27.074Z,101187.47
2022-10-05T05:57:04.297Z,101184.53
2022-10-05T05:59:47.377Z,101192.25
2022-10-05T06:02:19.665Z,101201.22
2022-10-05T06:04:51.001Z,101195.03
2022-10-05T06:07:30.203Z,101196.16
2022-10-05T06:10:02.812Z,101204.34
2022-10-05T06:12:35.416Z,101205.56
2022-10-05T06:15:12.355Z,101205.56
2022-10-05T06:17:45.203Z,101210.72
2022-10-05T06:20:28.990Z,101208.22
2022-10-05T06:23:01.006Z,101219.19
2022-10-05T06:25:42.013Z,101217.56
2022-10-05T06:28:11.998Z,101215.41
2022-10-05T06:30:51.708Z,101218.03
2022-10-05T06:33:31.469Z,101216.19
2022-10-05T06:36:09.666Z,101217.41
2022-10-05T06:38:53.904Z,101210.47
2022-10-05T06:41:31.546Z,101217.63
2022-10-05T06:44:04.741Z,101222.03
2022-10-05T06:46:34.158Z,101223.69
2022-10-05T06:49:23.403Z,101227.81
2022-10-05T06:51:56.091Z,101219.09
2022-10-05T06:54:51.751Z,101224.41
2022-10-05T06:57:41.130Z,101223.97
2022-10-05T07:00:18.240Z,101225.47
2022-10-05T07:02:53.447Z,101229.16
2022-10-05T07:05:44.677Z,101234.06
2022-10-05T07:08:15.779Z,101226.75
2022-10-05T07:10:52.612Z,101225.59
2022-10-05T07:13:48.044Z,101213.16
2022-10-05T07:16:26.056Z,101215.28
2022-10-05T07:19:07.736Z,101215.28
2022-10-05T07:21:45.058Z,101219.84
2022-10-05T07:24:29.267Z,101216.34
2022-10-05T07:27:02.044Z,101218.88
2022-10-05T07:29:35.014Z,101225.91
2022-10-05T07:32:14.582Z,101219.94
2022-10-05T07:34:50.325Z,101214.19
2022-10-05T07:37:39.349Z,101217.28
2022-10-05T07:40:15.226Z,101216.78
2022-10-05T07:42:56.547Z,101208.56
2022-10-05T07:45:29.239Z,101206.84
2022-10-05T07:48:04.055Z,101204.25
2022-10-05T07:50:38.647Z,101198.44
2022-10-05T07:53:15.292Z,101199.91
2022-10-05T07:55:47.486Z,101194.13
2022-10-05T07:58:20.886Z,101194.66
2022-10-05T08:01:04.500Z,101185.63
2022-10-05T08:03:43.146Z,101190.91
2022-10-05T08:06:13.055Z,101181.94
2022-10-05T08:08:49.911Z,101189.22
2022-10-05T08:11:22.201Z,101180.59
2022-10-05T08:13:54.736Z,101178.91
2022-10-05T08:16:25.939Z,101178.81
2022-10-05T08:18:59.801Z,101187.38
2022-10-05T08:21:30.777Z,101189.88
2022-10-05T08:24:00.830Z,101187.06
2022-10-05T08:26:35.165Z,101186.19
2022-10-05T08:29:10.290Z,101179.69
2022-10-05T08:31:42.116Z,101175.63
2022-10-05T08:34:20.360Z,101166.00
2022-10-05T08:36:54.077Z,101170.94
2022-10-05T08:39:21.550Z,101161.59
2022-10-05T08:42:06.117Z,101165.25
2022-10-05T08:44:51.105Z,101152.22
2022-10-05T08:47:36.242Z,101155.28
2022-10-05T08:50:19.211Z,101163.03
2022-10-05T08:53:01.543Z,101165.31
2022-10-05T08:55:38.351Z,101154.03
2022-10-05T08:58:25.962Z,101155.72
2022-10-05T09:00:56.194Z,101153.00
2022-10-05T09:03:34.446Z,101155.78
2022-10-05T09:06:16.932Z,101153.56
2022-10-05T09:08:48.065Z,101148.28
2022-10-05T09:11:19.726Z,101146.34
2022-10-05T09:14:04.211Z,101150.03
2022-10-05T09:16:49.570Z,101144.22
2022-10-05T09:19:32.526Z,101150.00
2022-10-05T09:22:06.186Z,101151.38
2022-10-05T09:24:48.367Z,101149.78
2022-10-05T09:27:16.058Z,101145.84
2022-10-05T09:29:57.470Z,101145.75
2022-10-05T09:32:35.882Z,101139.44
2022-10-05T09:35:15.919Z,101134.91
2022-10-05T09:37:57.731Z,101142.22
2022-10-05T09:40:54.504Z,101140.47
2022-10-05T09:43:33.712Z,101136.38
2022-10-05T09:46:12.462Z,101133.63
2022-10-05T09:48:52.649Z,101129.84
2022-10-05T09:51:34.045Z,101136.34
2022-10-05T09:54:17.050Z,101141.16
2022-10-05T09:56:55.233Z,101133.44
2022-10-05T09:59:55.080Z,101127.34
2022-10-05T10:02:41.990Z,101132.03
2022-10-05T10:05:20.046Z,101133.25
2022-10-05T10:08:01.086Z,101133.09
2022-10-05T10:10:49.547Z,101129.66
2022-10-05T10:13:39.278Z,101134.19
2022-10-05T10:16:15.434Z,101125.69
2022-10-05T10:19:02.965Z,101125.97
2022-10-05T10:21:46.716Z,101117.47
2022-10-05T10:24:18.329Z,101118.28
2022-10-05T10:26:59.750Z,101126.47
2022-10-05T10:29:46.016Z,101129.38
2022-10-05T10:32:19.899Z,101118.25
2022-10-05T10:34:57.320Z,101123.06
2022-10-05T10:37:42.414Z,101116.25
2022-10-05T10:40:20.414Z,101126.41
2022-10-05T10:42:54.276Z,101124.88
2022-10-05T10:45:30.056Z,101116.84
2022-10-05T10:48:02.360Z,101105.47
2022-10-05T10:50:47.597Z,101113.91
2022-10-05T10:53:25.265Z,101118.72
2022-10-05T10:55:57.925Z,101114.28
2022-10-05T10:58:42.479Z,101110.69
2022-10-05T11:01:16.358Z,101113.91
2022-10-05T11:03:56.698Z,101105.38
2022-10-05T11:06:32.846Z,101113.84
2022-10-05T11:09:20.514Z,101109.50
2022-10-05T11:12:01.932Z,101120.44
2022-10-05T11:14:47.335Z,101117.88
2022-10-05T11:17:29.333Z,101114.09
2022-10-05T11:20:04.702Z,101106.50
2022-10-05T11:22:42.821Z,101116.66
2022-10-05T11:25:36.580Z,101108.09
2022-10-05T11:28:13.809Z,101110.19
2022-10-05T11:30:55.274Z,101106.94
2022-10-05T11:33:40.646Z,101113.72
2022-10-05T11:36:23.109Z,101123.94
2022-10-05T11:39:05.997Z,101115.69
2022-10-05T11:41:42.461Z,101106.56
2022-10-05T11:44:27.781Z,101105.59
2022-10-05T11:46:58.444Z,101099.44
2022-10-05T11:49:33.984Z,101101.53
2022-10-05T11:52:15.295Z,101096.38
2022-10-05T11:55:10.350Z,101104.50
2022-10-05T11:57:38.531Z,101100.94
2022-10-05T12:00:12.421Z,101106.19
2022-10-05T12:02:53.751Z,101109.34
2022-10-05T12:05:22.832Z,101101.94
2022-10-05T12:07:58.365Z,101101.09
2022-10-05T12:10:32.708Z,101106.06
2022-10-05T12:13:10.861Z,101101.88
2022-10-05T12:15:42.304Z,101100.00
2022-10-05T12:18:13.612Z,101107.31
2022-10-05T12:20:46.501Z,101113.41
2022-10-05T12:23:17.795Z,101097.00
2022-10-05T12:25:45.996Z,101107.72
2022-10-05T12:28:15.061Z,101103.09
2022-10-05T12:31:01.386Z,101088.25
2022-10-05T12:33:33.129Z,101097.44
2022-10-05T12:36:03.236Z,101094.78
2022-10-05T12:38:35.138Z,101097.56
2022-10-05T12:41:05.959Z,101098.03
2022-10-05T12:43:37.459Z,101106.94
2022-10-05T12:46:09.191Z,101110.19
2022-10-05T12:48:56.988Z,101106.19
2022-10-05T12:51:28.855Z,101097.63
2022-10-05T12:53:58.825Z,101099.66
2022-10-05T12:56:31.812Z,101095.72
2022-10-05T12:59:04.497Z,101090.03
2022-10-05T13:01:36.961Z,101094.13
2022-10-05T13:04:09.710Z,101077.50
2022-10-05T13:06:41.180Z,101080.38
2022-10-05T13:09:13.041Z,101088.03
2022-10-05T13:11:43.052Z,101076.72
2022-10-05T13:14:14.842Z,101080.41
2022-10-05T13:16:45.791Z,101090.06
2022-10-05T13:19:20.186Z,101074.28
2022-10-05T13:22:01.734Z,101077.16
2022-10-05T13:24:31.433Z,101071.41
2022-10-05T13:27:00.782Z,101073.84
2022-10-05T13:29:33.195Z,101083.63
2022-10-05T13:32:03.685Z,101089.31
2022-10-05T13:34:33.873Z,101078.78
2022-10-05T13:37:06.031Z,101087.66
2022-10-05T13:39:46.002Z,101079.56
2022-10-05T13:42:15.554Z,101083.19
2022-10-05T13:44:45.779Z,101083.19
2022-10-05T13:47:16.964Z,101083.22
2022-10-05T13:49:49.459Z,101099.84
2022-10-05T13:52:24.203Z,101094.09
2022-10-05T13:54:56.577Z,101100.22
2022-10-05T13:57:31.233Z,101092.56
2022-10-05T13:59:58.500Z,101096.19
2022-10-05T14:02:28.742Z,101090.13
2022-10-05T14:04:58.874Z,101096.16
2022-10-05T14:07:30.249Z,101098.16
2022-10-05T14:09:59.392Z,101096.97
2022-10-05T14:12:26.994Z,101093.41
2022-10-05T14:14:54.304Z,101092.16
2022-10-05T14:17:37.338Z,101097.38
2022-10-05T14:20:16.973Z,101087.63
2022-10-05T14:22:52.779Z,101098.53
2022-10-05T14:25:20.986Z,101098.06
2022-10-05T14:27:59.657Z,101088.00
2022-10-05T14:30:26.955Z,101099.34
2022-10-05T14:32:56.367Z,101096.50
2022-10-05T14:35:25.598Z,101089.66
2022-10-05T14:37:58.711Z,101088.44
2022-10-05T14:40:31.080Z,101101.06
2022-10-05T14:42:58.323Z,101099.00
2022-10-05T14:45:25.897Z,101091.69
2022-10-05T14:47:53.792Z,101098.53
2022-10-05T14:50:25.444Z,101101.00
2022-10-05T14:53:14.093Z,101104.63
2022-10-05T14:56:05.476Z,101103.44
2022-10-05T14:58:38.295Z,101099.38
2022-10-05T15:01:13.724Z,101098.97
2022-10-05T15:03:47.196Z,101109.13
2022-10-05T15:06:18.529Z,101105.47
2022-10-05T15:08:50.234Z,101114.38
2022-10-05T15:11:23.659Z,101108.69
2022-10-05T15:13:51.751Z,101107.50
2022-10-05T15:16:20.246Z,101113.53
2022-10-05T15:18:50.770Z,101122.88
2022-10-05T15:21:30.456Z,101112.34
2022-10-05T15:24:00.721Z,101118.03
2022-10-05T15:26:39.021Z,101103.44
2022-10-05T15:29:10.599Z,101113.63
2022-10-05T15:31:40.758Z,101110.31
2022-10-05T15:34:10.365Z,101118.38
2022-10-05T15:36:41.477Z,101111.53
2022-10-05T15:39:13.304Z,101126.09
2022-10-05T15:41:50.646Z,101117.22
2022-10-05T15:44:24.200Z,101116.38
2022-10-05T15:46:56.823Z,101125.72
2022-10-05T15:49:27.016Z,101128.50
2022-10-05T15:51:57.707Z,101124.09
2022-10-05T15:54:41.885Z,101127.72
2022-10-05T15:57:11.323Z,101122.50
2022-10-05T15:59:43.583Z,101128.13
2022-10-05T16:02:15.071Z,101124.91
2022-10-05T16:04:47.440Z,101127.75
2022-10-05T16:07:37.850Z,101128.13
2022-10-05T16:10:12.181Z,101127.69
2022-10-05T16:12:42.775Z,101122.03
2022-10-05T16:15:20.241Z,101122.00
2022-10-05T16:18:04.888Z,101123.25
2022-10-05T16:20:37.376Z,101126.41
2022-10-05T16:23:08.086Z,101133.69
2022-10-05T16:25:42.077Z,101125.59
2022-10-05T16:28:15.413Z,101130.84
2022-10-05T16:30:50.939Z,101134.09
2022-10-05T16:33:22.765Z,101127.22
2022-10-05T16:35:53.615Z,101132.53
2022-10-05T16:38:25.563Z,101130.50
2022-10-05T16:41:03.687Z,101138.63
2022-10-05T16:43:37.053Z,101144.72
2022-10-05T16:46:10.345Z,101153.22
2022-10-05T16:48:40.700Z,101154.41
2022-10-05T16:51:21.089Z,101153.97
2022-10-05T16:53:51.989Z,101156.50
2022-10-05T16:56:20.918Z,101164.19
2022-10-05T16:58:54.952Z,101165.03
2022-10-05T17:01:29.101Z,101164.59
2022-10-05T17:04:04.121Z,101183.25
2022-10-05T17:06:37.268Z,101175.56
2022-10-05T17:09:21.499Z,101180.44
2022-10-05T17:12:05.956Z,101192.16
2022-10-05T17:14:37.866Z,101211.16
2022-10-05T17:17:29.170Z,101211.50
2022-10-05T17:20:01.288Z,101213.50
2022-10-05T17:22:31.254Z,101217.53
2022-10-05T17:25:02.438Z,101217.22
2022-10-05T17:27:33.558Z,101239.78
2022-10-05T17:30:20.807Z,101237.69
2022-10-05T17:33:00.162Z,101245.38
2022-10-05T17:35:47.745Z,101261.66
2022-10-05T17:38:20.256Z,101267.63
2022-10-05T17:41:06.393Z,101284.81
2022-10-05T17:43:33.554Z,101293.03
2022-10-05T17:46:00.741Z,101320.84
2022-10-05T17:49:06.777Z,101327.69
2022-10-05T17:52:11.023Z,101326.03
2022-10-05T17:55:10.765Z,101321.47
2022-10-05T17:57:37.695Z,101340.19
2022-10-05T18:00:05.223Z,101330.50
2022-10-05T18:02:39.873Z,101326.25
2022-10-05T18:05:18.441Z,101322.50
2022-10-05T18:07:49.698Z,101340.75
2022-10-05T18:10:21.670Z,101331.88
2022-10-05T18:12:49.598Z,101336.00
2022-10-05T18:15:36.893Z,101338.44
2022-10-05T18:18:33.377Z,101348.09
2022-10-05T18:24:02.240Z,101356.34
2022-10-05T18:26:34.022Z,101347.03
2022-10-05T18:29:14.089Z,101351.41
2022-10-05T18:31:46.193Z,101366.22
2022-10-05T18:34:21.694Z,101362.28
2022-10-05T18:36:55.513Z,101367.16
2022-10-05T18:39:35.417Z,101380.19
2022-10-05T18:42:08.790Z,101390.09
2022-10-05T18:44:39.515Z,101376.59
2022-10-05T18:47:09.113Z,101376.19
2022-10-05T18:49:43.740Z,101406.13
2022-10-05T18:52:15.566Z,101401.50
2022-10-05T18:54:50.105Z,101409.47
2022-10-05T18:57:28.704Z,101423.81
2022-10-05T18:59:58.832Z,101412.53
2022-10-05T19:02:29.932Z,101426.97
2022-10-05T19:05:07.271Z,101438.69
2022-10-05T19:07:41.961Z,101431.28
2022-10-05T19:10:14.942Z,101429.56
2022-10-05T19:12:48.433Z,101445.94
2022-10-05T19:15:19.140Z,101447.00
2022-10-05T19:18:08.241Z,101445.13
2022-10-05T19:20:37.874Z,101458.09
2022-10-05T19:23:14.098Z,101471.81
2022-10-05T19:25:46.234Z,101476.69
2022-10-05T19:28:23.546Z,101493.25
2022-10-05T19:30:57.277Z,101491.63
2022-10-05T19:33:29.857Z,101489.72
2022-10-05T19:36:02.398Z,101496.88
2022-10-05T19:38:31.762Z,101509.59
2022-10-05T19:41:05.811Z,101515.19
2022-10-05T19:43:39.415Z,101517.72
2022-10-05T19:46:13.284Z,101521.94
2022-10-05T19:48:46.238Z,101531.22
2022-10-05T19:51:16.229Z,101540.38
2022-10-05T19:53:45.951Z,101549.63
2022-10-05T19:56:21.222Z,101560.81
2022-10-05T19:58:48.627Z,101552.19
2022-10-05T20:01:24.141Z,101569.13
2022-10-05T20:03:51.189Z,101576.97
2022-10-05T20:06:18.926Z,101574.69
2022-10-05T20:08:46.572Z,101588.09
2022-10-05T20:11:14.192Z,101591.41
2022-10-05T20:13:43.116Z,101581.63
2022-10-05T20:16:36.524Z,101601.84
2022-10-05T20:19:22.221Z,101591.75
2022-10-05T20:21:49.395Z,101604.03
2022-10-05T20:24:17.291Z,101611.56
2022-10-05T20:27:06.593Z,101615.41
2022-10-05T20:29:35.770Z,101625.44
2022-10-05T20:32:08.186Z,101635.50
2022-10-05T20:34:35.967Z,101631.97
2022-10-05T20:37:02.691Z,101636.59
2022-10-05T20:39:31.330Z,101637.22
2022-10-05T20:41:58.536Z,101652.09
2022-10-05T20:44:25.211Z,101658.03
2022-10-05T20:46:55.588Z,101672.41
2022-10-05T20:49:25.747Z,101676.59
2022-10-05T20:51:53.372Z,101684.03
2022-10-05T20:54:19.972Z,101694.91
2022-10-05T20:56:46.911Z,101693.94
2022-10-05T20:59:13.424Z,101708.69
2022-10-05T21:01:40.022Z,101713.25
2022-10-05T21:04:07.961Z,101719.47
2022-10-05T21:06:34.531Z,101720.00
2022-10-05T21:09:01.115Z,101722.19
2022-10-05T21:11:28.595Z,101727.75
2022-10-05T21:13:55.229Z,101735.66
2022-10-05T21:16:23.061Z,101751.25
2022-10-05T21:18:49.760Z,101753.25
2022-10-05T21:21:18.155Z,101751.72
2022-10-05T21:23:44.918Z,101759.31
2022-10-05T21:26:12.109Z,101758.50
2022-10-05T21:28:39.483Z,101762.44
2022-10-05T21:31:06.392Z,101771.72
2022-10-05T21:33:33.063Z,101787.84
2022-10-05T21:35:59.755Z,101793.66
2022-10-05T21:38:28.515Z,101794.66
2022-10-05T21:40:55.530Z,101794.13
2022-10-05T21:43:22.110Z,101799.09
2022-10-05T21:45:48.846Z,101801.97
2022-10-05T21:48:16.571Z,101800.19
2022-10-05T21:50:43.162Z,101804.56
2022-10-05T21:53:12.923Z,101808.00
2022-10-05T21:55:41.602Z,101811.09
2022-10-05T21:58:08.511Z,101816.25
2022-10-05T22:00:35.086Z,101824.53
2022-10-05T22:03:01.654Z,101832.31
2022-10-05T22:05:28.663Z,101844.28
2022-10-05T22:07:55.270Z,101844.66
2022-10-05T22:10:21.848Z,101845.25
2022-10-05T22:12:49.779Z,101845.59
2022-10-05T22:15:16.491Z,101853.81
2022-10-05T22:17:43.200Z,101852.56
2022-10-05T22:20:12.245Z,101857.53
2022-10-05T22:22:38.784Z,101867.72
2022-10-05T22:25:05.845Z,101869.25
2022-10-05T22:27:32.798Z,101873.34
2022-10-05T22:30:01.114Z,101877.47
2022-10-05T22:32:27.677Z,101873.78
2022-10-05T22:34:54.214Z,101880.81
2022-10-05T22:37:20.764Z,101877.75
2022-10-05T22:39:48.314Z,101889.81
2022-10-05T22:42:15.267Z,101896.25
2022-10-05T22:44:42.237Z,101896.72
2022-10-05T22:47:10.192Z,101897.88
2022-10-05T22:49:36.725Z,101914.16
2022-10-05T22:52:03.535Z,101910.19
2022-10-05T22:54:32.464Z,101917.41
2022-10-05T22:57:00.849Z,101918.34
2022-10-05T22:59:27.633Z,101923.94
2022-10-05T23:01:54.350Z,101926.56
2022-10-05T23:04:22.453Z,101931.69
2022-10-05T23:06:49.008Z,101942.94
2022-10-05T23:09:15.554Z,101943.38
2022-10-05T23:11:42.119Z,101946.41
2022-10-05T23:14:08.685Z,101950.09
2022-10-05T23:16:35.346Z,101961.03
2022-10-05T23:19:03.049Z,101960.22
2022-10-05T23:21:30.995Z,101957.09
2022-10-05T23:23:57.547Z,101970.53
2022-10-05T23:26:24.612Z,101977.22
2022-10-05T23:28:51.137Z,101974.59
2022-10-05T23:31:19.310Z,101980.88
2022-10-05T23:33:46.031Z,101982.53
2022-10-05T23:36:13.792Z,101987.03
2022-10-05T23:38:41.729Z,101994.16
2022-10-05T23:41:08.981Z,102004.41
2022-10-05T23:43:36.836Z,102006.59
2022-10-05T23:46:04.261Z,102008.59
2022-10-05T23:48:31.508Z,102015.06
2022-10-05T23:50:58.920Z,102021.72
2022-10-05T23:53:25.701Z,102024.88
2022-10-05T23:55:54.113Z,102020.94
2022-10-05T23:58:21.010Z,102029.38
